sensor_id;sensor_type;location;lat;lon;timestamp;P1;durP1;ratioP1;P2;durP2;ratioP2
78131;SDS011;67381;47.672;9.380;2024-01-06T00:00:36;11.57;;;8.48;;
78131;SDS011;67381;47.672;9.380;2024-01-06T00:03:03;10.98;;;7.00;;
78131;SDS011;67381;47.672;9.380;2024-01-06T00:05:31;10.63;;;6.75;;
78131;SDS011;67381;47.672;9.380;2024-01-06T00:07:58;9.20;;;4.85;;
78131;SDS011;67381;47.672;9.380;2024-01-06T00:10:25;6.13;;;4.22;;
78131;SDS011;67381;47.672;9.380;2024-01-06T00:12:53;6.50;;;4.28;;
78131;SDS011;67381;47.672;9.380;2024-01-06T00:15:20;3.42;;;2.40;;
78131;SDS011;67381;47.672;9.380;2024-01-06T00:17:47;3.22;;;1.98;;
78131;SDS011;67381;47.672;9.380;2024-01-06T00:20:14;4.82;;;2.40;;
78131;SDS011;67381;47.672;9.380;2024-01-06T00:22:42;5.00;;;2.65;;
78131;SDS011;67381;47.672;9.380;2024-01-06T00:25:11;3.53;;;2.55;;
78131;SDS011;67381;47.672;9.380;2024-01-06T00:27:38;5.63;;;4.15;;
78131;SDS011;67381;47.672;9.380;2024-01-06T00:30:05;6.03;;;3.90;;
78131;SDS011;67381;47.672;9.380;2024-01-06T00:32:32;5.25;;;3.90;;
78131;SDS011;67381;47.672;9.380;2024-01-06T00:35:01;6.03;;;4.20;;
78131;SDS011;67381;47.672;9.380;2024-01-06T00:37:28;5.47;;;3.78;;
78131;SDS011;67381;47.672;9.380;2024-01-06T00:39:55;7.55;;;3.88;;
78131;SDS011;67381;47.672;9.380;2024-01-06T00:42:22;7.80;;;4.95;;
78131;SDS011;67381;47.672;9.380;2024-01-06T00:44:49;4.80;;;3.13;;
78131;SDS011;67381;47.672;9.380;2024-01-06T00:47:16;6.72;;;4.65;;
78131;SDS011;67381;47.672;9.380;2024-01-06T00:49:43;7.95;;;4.40;;
78131;SDS011;67381;47.672;9.380;2024-01-06T00:52:12;6.10;;;3.92;;
78131;SDS011;67381;47.672;9.380;2024-01-06T00:54:39;8.65;;;4.32;;
78131;SDS011;67381;47.672;9.380;2024-01-06T00:57:07;8.50;;;4.75;;
78131;SDS011;67381;47.672;9.380;2024-01-06T00:59:34;6.00;;;3.80;;
78131;SDS011;67381;47.672;9.380;2024-01-06T01:02:01;4.93;;;3.60;;
78131;SDS011;67381;47.672;9.380;2024-01-06T01:04:28;4.97;;;3.08;;
78131;SDS011;67381;47.672;9.380;2024-01-06T01:06:55;3.92;;;2.88;;
78131;SDS011;67381;47.672;9.380;2024-01-06T01:09:22;3.78;;;3.08;;
78131;SDS011;67381;47.672;9.380;2024-01-06T01:11:49;4.10;;;2.88;;
78131;SDS011;67381;47.672;9.380;2024-01-06T01:14:17;4.88;;;2.97;;
78131;SDS011;67381;47.672;9.380;2024-01-06T01:16:45;4.90;;;2.75;;
78131;SDS011;67381;47.672;9.380;2024-01-06T01:19:12;4.57;;;2.53;;
78131;SDS011;67381;47.672;9.380;2024-01-06T01:21:39;4.40;;;3.03;;
78131;SDS011;67381;47.672;9.380;2024-01-06T01:24:06;5.38;;;3.30;;
78131;SDS011;67381;47.672;9.380;2024-01-06T01:26:34;3.95;;;2.30;;
78131;SDS011;67381;47.672;9.380;2024-01-06T01:29:01;4.05;;;2.60;;
78131;SDS011;67381;47.672;9.380;2024-01-06T01:31:29;4.18;;;2.50;;
78131;SDS011;67381;47.672;9.380;2024-01-06T01:33:56;5.70;;;2.67;;
78131;SDS011;67381;47.672;9.380;2024-01-06T01:36:23;4.20;;;2.40;;
78131;SDS011;67381;47.672;9.380;2024-01-06T01:38:50;4.80;;;3.05;;
78131;SDS011;67381;47.672;9.380;2024-01-06T01:41:17;4.30;;;3.00;;
78131;SDS011;67381;47.672;9.380;2024-01-06T01:43:45;5.63;;;3.30;;
78131;SDS011;67381;47.672;9.380;2024-01-06T01:46:12;4.47;;;3.25;;
78131;SDS011;67381;47.672;9.380;2024-01-06T01:48:39;5.32;;;4.05;;
78131;SDS011;67381;47.672;9.380;2024-01-06T01:51:07;6.00;;;3.65;;
78131;SDS011;67381;47.672;9.380;2024-01-06T01:53:34;5.45;;;4.25;;
78131;SDS011;67381;47.672;9.380;2024-01-06T01:56:01;6.57;;;4.75;;
78131;SDS011;67381;47.672;9.380;2024-01-06T01:58:31;6.05;;;3.40;;
78131;SDS011;67381;47.672;9.380;2024-01-06T02:00:58;5.35;;;3.63;;
78131;SDS011;67381;47.672;9.380;2024-01-06T02:03:26;5.90;;;4.15;;
78131;SDS011;67381;47.672;9.380;2024-01-06T02:05:53;5.90;;;4.40;;
78131;SDS011;67381;47.672;9.380;2024-01-06T02:08:20;6.53;;;3.72;;
78131;SDS011;67381;47.672;9.380;2024-01-06T02:10:47;5.75;;;3.78;;
78131;SDS011;67381;47.672;9.380;2024-01-06T02:13:14;5.43;;;4.30;;
78131;SDS011;67381;47.672;9.380;2024-01-06T02:15:41;7.18;;;4.30;;
78131;SDS011;67381;47.672;9.380;2024-01-06T02:18:08;6.70;;;3.92;;
78131;SDS011;67381;47.672;9.380;2024-01-06T02:20:35;6.57;;;3.25;;
78131;SDS011;67381;47.672;9.380;2024-01-06T02:23:03;5.00;;;3.42;;
78131;SDS011;67381;47.672;9.380;2024-01-06T02:25:30;6.40;;;3.63;;
78131;SDS011;67381;47.672;9.380;2024-01-06T02:27:57;7.20;;;4.13;;
78131;SDS011;67381;47.672;9.380;2024-01-06T02:30:24;7.70;;;4.30;;
78131;SDS011;67381;47.672;9.380;2024-01-06T02:32:51;7.25;;;4.00;;
78131;SDS011;67381;47.672;9.380;2024-01-06T02:35:18;9.02;;;5.10;;
78131;SDS011;67381;47.672;9.380;2024-01-06T02:37:45;6.85;;;4.00;;
78131;SDS011;67381;47.672;9.380;2024-01-06T02:40:13;6.70;;;4.13;;
78131;SDS011;67381;47.672;9.380;2024-01-06T02:42:40;6.63;;;3.63;;
78131;SDS011;67381;47.672;9.380;2024-01-06T02:45:07;6.20;;;3.47;;
78131;SDS011;67381;47.672;9.380;2024-01-06T02:47:36;5.88;;;3.60;;
78131;SDS011;67381;47.672;9.380;2024-01-06T02:50:03;5.95;;;4.20;;
78131;SDS011;67381;47.672;9.380;2024-01-06T02:52:30;6.43;;;3.75;;
78131;SDS011;67381;47.672;9.380;2024-01-06T02:54:57;6.05;;;4.82;;
78131;SDS011;67381;47.672;9.380;2024-01-06T02:57:25;8.85;;;5.45;;
78131;SDS011;67381;47.672;9.380;2024-01-06T02:59:52;7.38;;;5.10;;
78131;SDS011;67381;47.672;9.380;2024-01-06T03:02:19;8.77;;;6.57;;
78131;SDS011;67381;47.672;9.380;2024-01-06T03:04:46;7.60;;;5.38;;
78131;SDS011;67381;47.672;9.380;2024-01-06T03:07:13;7.78;;;5.03;;
78131;SDS011;67381;47.672;9.380;2024-01-06T03:09:40;9.82;;;6.47;;
78131;SDS011;67381;47.672;9.380;2024-01-06T03:12:07;8.43;;;4.78;;
78131;SDS011;67381;47.672;9.380;2024-01-06T03:14:35;11.10;;;5.82;;
78131;SDS011;67381;47.672;9.380;2024-01-06T03:17:02;7.97;;;4.20;;
78131;SDS011;67381;47.672;9.380;2024-01-06T03:19:32;6.50;;;4.45;;
78131;SDS011;67381;47.672;9.380;2024-01-06T03:21:59;5.90;;;3.70;;
78131;SDS011;67381;47.672;9.380;2024-01-06T03:24:26;6.15;;;3.95;;
78131;SDS011;67381;47.672;9.380;2024-01-06T03:26:54;6.30;;;4.40;;
78131;SDS011;67381;47.672;9.380;2024-01-06T03:29:21;6.15;;;4.70;;
78131;SDS011;67381;47.672;9.380;2024-01-06T03:31:48;6.93;;;4.35;;
78131;SDS011;67381;47.672;9.380;2024-01-06T03:34:15;4.70;;;3.05;;
78131;SDS011;67381;47.672;9.380;2024-01-06T03:36:42;5.63;;;3.85;;
78131;SDS011;67381;47.672;9.380;2024-01-06T03:39:09;5.05;;;3.63;;
78131;SDS011;67381;47.672;9.380;2024-01-06T03:41:37;4.82;;;3.10;;
78131;SDS011;67381;47.672;9.380;2024-01-06T03:44:04;3.83;;;2.10;;
78131;SDS011;67381;47.672;9.380;2024-01-06T03:46:32;4.45;;;2.80;;
78131;SDS011;67381;47.672;9.380;2024-01-06T03:48:59;6.18;;;2.47;;
78131;SDS011;67381;47.672;9.380;2024-01-06T03:51:26;3.95;;;2.47;;
78131;SDS011;67381;47.672;9.380;2024-01-06T03:53:54;5.43;;;3.10;;
78131;SDS011;67381;47.672;9.380;2024-01-06T03:56:21;5.18;;;3.30;;
78131;SDS011;67381;47.672;9.380;2024-01-06T03:58:48;4.43;;;2.95;;
78131;SDS011;67381;47.672;9.380;2024-01-06T04:01:15;6.68;;;4.18;;
78131;SDS011;67381;47.672;9.380;2024-01-06T04:03:42;5.68;;;4.03;;
78131;SDS011;67381;47.672;9.380;2024-01-06T04:06:09;6.45;;;4.38;;
78131;SDS011;67381;47.672;9.380;2024-01-06T04:08:38;8.35;;;4.78;;
78131;SDS011;67381;47.672;9.380;2024-01-06T04:11:05;12.07;;;5.55;;
78131;SDS011;67381;47.672;9.380;2024-01-06T04:13:32;7.63;;;4.55;;
78131;SDS011;67381;47.672;9.380;2024-01-06T04:15:59;7.97;;;5.13;;
78131;SDS011;67381;47.672;9.380;2024-01-06T04:18:26;10.32;;;6.25;;
78131;SDS011;67381;47.672;9.380;2024-01-06T04:20:54;9.85;;;7.43;;
78131;SDS011;67381;47.672;9.380;2024-01-06T04:23:21;11.68;;;7.38;;
78131;SDS011;67381;47.672;9.380;2024-01-06T04:25:50;12.88;;;7.70;;
78131;SDS011;67381;47.672;9.380;2024-01-06T04:28:17;10.23;;;6.43;;
78131;SDS011;67381;47.672;9.380;2024-01-06T04:30:44;12.70;;;6.65;;
78131;SDS011;67381;47.672;9.380;2024-01-06T04:33:11;10.98;;;7.85;;
78131;SDS011;67381;47.672;9.380;2024-01-06T04:35:38;11.15;;;7.93;;
78131;SDS011;67381;47.672;9.380;2024-01-06T04:38:05;9.48;;;6.45;;
78131;SDS011;67381;47.672;9.380;2024-01-06T04:40:33;10.40;;;7.13;;
78131;SDS011;67381;47.672;9.380;2024-01-06T04:43:00;10.38;;;7.72;;
78131;SDS011;67381;47.672;9.380;2024-01-06T04:45:27;12.30;;;8.20;;
78131;SDS011;67381;47.672;9.380;2024-01-06T04:47:54;10.63;;;7.38;;
78131;SDS011;67381;47.672;9.380;2024-01-06T04:50:21;9.15;;;7.22;;
78131;SDS011;67381;47.672;9.380;2024-01-06T04:52:48;9.60;;;6.35;;
78131;SDS011;67381;47.672;9.380;2024-01-06T04:55:15;12.85;;;7.63;;
78131;SDS011;67381;47.672;9.380;2024-01-06T04:57:42;11.45;;;7.15;;
78131;SDS011;67381;47.672;9.380;2024-01-06T05:00:09;11.60;;;7.60;;
78131;SDS011;67381;47.672;9.380;2024-01-06T05:02:37;11.18;;;6.85;;
78131;SDS011;67381;47.672;9.380;2024-01-06T05:05:04;11.35;;;6.25;;
78131;SDS011;67381;47.672;9.380;2024-01-06T05:07:31;10.98;;;7.15;;
78131;SDS011;67381;47.672;9.380;2024-01-06T05:09:58;10.35;;;6.88;;
78131;SDS011;67381;47.672;9.380;2024-01-06T05:12:26;9.88;;;6.93;;
78131;SDS011;67381;47.672;9.380;2024-01-06T05:14:53;9.52;;;6.82;;
78131;SDS011;67381;47.672;9.380;2024-01-06T05:17:20;11.98;;;7.68;;
78131;SDS011;67381;47.672;9.380;2024-01-06T05:19:47;11.10;;;5.95;;
78131;SDS011;67381;47.672;9.380;2024-01-06T05:22:14;10.75;;;6.43;;
78131;SDS011;67381;47.672;9.380;2024-01-06T05:24:41;8.68;;;6.00;;
78131;SDS011;67381;47.672;9.380;2024-01-06T05:27:08;11.40;;;6.72;;
78131;SDS011;67381;47.672;9.380;2024-01-06T05:29:36;9.98;;;6.35;;
78131;SDS011;67381;47.672;9.380;2024-01-06T05:32:04;9.30;;;6.45;;
78131;SDS011;67381;47.672;9.380;2024-01-06T05:34:31;13.25;;;6.90;;
78131;SDS011;67381;47.672;9.380;2024-01-06T05:36:58;8.35;;;5.50;;
78131;SDS011;67381;47.672;9.380;2024-01-06T05:39:25;8.65;;;4.63;;
78131;SDS011;67381;47.672;9.380;2024-01-06T05:41:53;8.60;;;4.95;;
78131;SDS011;67381;47.672;9.380;2024-01-06T05:44:20;6.43;;;4.07;;
78131;SDS011;67381;47.672;9.380;2024-01-06T05:46:47;8.32;;;3.65;;
78131;SDS011;67381;47.672;9.380;2024-01-06T05:49:14;4.32;;;2.70;;
78131;SDS011;67381;47.672;9.380;2024-01-06T05:51:44;5.82;;;2.72;;
78131;SDS011;67381;47.672;9.380;2024-01-06T05:54:12;3.58;;;2.53;;
78131;SDS011;67381;47.672;9.380;2024-01-06T05:56:39;4.28;;;2.78;;
78131;SDS011;67381;47.672;9.380;2024-01-06T05:59:07;6.20;;;2.45;;
78131;SDS011;67381;47.672;9.380;2024-01-06T06:01:34;4.75;;;2.53;;
78131;SDS011;67381;47.672;9.380;2024-01-06T06:04:01;5.07;;;3.33;;
78131;SDS011;67381;47.672;9.380;2024-01-06T06:06:28;3.45;;;2.30;;
78131;SDS011;67381;47.672;9.380;2024-01-06T06:08:55;2.83;;;2.10;;
78131;SDS011;67381;47.672;9.380;2024-01-06T06:11:23;3.25;;;2.03;;
78131;SDS011;67381;47.672;9.380;2024-01-06T06:13:50;4.95;;;2.13;;
78131;SDS011;67381;47.672;9.380;2024-01-06T06:16:17;5.35;;;2.67;;
78131;SDS011;67381;47.672;9.380;2024-01-06T06:18:44;3.83;;;1.73;;
78131;SDS011;67381;47.672;9.380;2024-01-06T06:21:11;3.70;;;2.47;;
78131;SDS011;67381;47.672;9.380;2024-01-06T06:23:38;3.53;;;2.58;;
78131;SDS011;67381;47.672;9.380;2024-01-06T06:26:06;4.10;;;2.55;;
78131;SDS011;67381;47.672;9.380;2024-01-06T06:28:34;3.72;;;2.33;;
78131;SDS011;67381;47.672;9.380;2024-01-06T06:31:01;4.93;;;2.83;;
78131;SDS011;67381;47.672;9.380;2024-01-06T06:33:28;5.95;;;3.25;;
78131;SDS011;67381;47.672;9.380;2024-01-06T06:35:56;4.53;;;2.33;;
78131;SDS011;67381;47.672;9.380;2024-01-06T06:38:23;4.57;;;2.08;;
78131;SDS011;67381;47.672;9.380;2024-01-06T06:40:52;4.13;;;2.75;;
78131;SDS011;67381;47.672;9.380;2024-01-06T06:43:19;4.45;;;2.00;;
78131;SDS011;67381;47.672;9.380;2024-01-06T06:45:46;3.90;;;2.42;;
78131;SDS011;67381;47.672;9.380;2024-01-06T06:48:13;3.67;;;1.90;;
78131;SDS011;67381;47.672;9.380;2024-01-06T06:50:40;4.97;;;2.40;;
78131;SDS011;67381;47.672;9.380;2024-01-06T06:53:10;3.03;;;1.33;;
78131;SDS011;67381;47.672;9.380;2024-01-06T06:55:37;3.55;;;2.15;;
78131;SDS011;67381;47.672;9.380;2024-01-06T06:58:04;4.47;;;2.10;;
78131;SDS011;67381;47.672;9.380;2024-01-06T07:00:34;4.70;;;2.30;;
78131;SDS011;67381;47.672;9.380;2024-01-06T07:03:02;4.80;;;2.00;;
78131;SDS011;67381;47.672;9.380;2024-01-06T07:05:29;4.35;;;2.10;;
78131;SDS011;67381;47.672;9.380;2024-01-06T07:07:56;3.40;;;1.10;;
78131;SDS011;67381;47.672;9.380;2024-01-06T07:10:24;2.20;;;1.40;;
78131;SDS011;67381;47.672;9.380;2024-01-06T07:12:51;2.63;;;1.55;;
78131;SDS011;67381;47.672;9.380;2024-01-06T07:15:18;4.60;;;1.77;;
78131;SDS011;67381;47.672;9.380;2024-01-06T07:17:45;3.72;;;1.83;;
78131;SDS011;67381;47.672;9.380;2024-01-06T07:20:12;2.65;;;1.63;;
78131;SDS011;67381;47.672;9.380;2024-01-06T07:22:39;4.82;;;2.05;;
78131;SDS011;67381;47.672;9.380;2024-01-06T07:25:07;3.42;;;1.60;;
78131;SDS011;67381;47.672;9.380;2024-01-06T07:27:35;3.88;;;1.70;;
78131;SDS011;67381;47.672;9.380;2024-01-06T07:30:02;6.43;;;1.20;;
78131;SDS011;67381;47.672;9.380;2024-01-06T07:32:30;3.78;;;1.58;;
78131;SDS011;67381;47.672;9.380;2024-01-06T07:34:57;4.93;;;1.90;;
78131;SDS011;67381;47.672;9.380;2024-01-06T07:37:24;6.97;;;1.85;;
78131;SDS011;67381;47.672;9.380;2024-01-06T07:39:52;5.68;;;2.40;;
78131;SDS011;67381;47.672;9.380;2024-01-06T07:42:19;3.10;;;1.77;;
78131;SDS011;67381;47.672;9.380;2024-01-06T07:44:46;4.72;;;2.47;;
78131;SDS011;67381;47.672;9.380;2024-01-06T07:47:13;4.38;;;2.25;;
78131;SDS011;67381;47.672;9.380;2024-01-06T07:49:41;7.32;;;2.47;;
78131;SDS011;67381;47.672;9.380;2024-01-06T07:52:08;6.72;;;2.70;;
78131;SDS011;67381;47.672;9.380;2024-01-06T07:54:35;3.72;;;2.35;;
78131;SDS011;67381;47.672;9.380;2024-01-06T07:57:02;6.63;;;2.60;;
78131;SDS011;67381;47.672;9.380;2024-01-06T07:59:29;3.47;;;2.10;;
78131;SDS011;67381;47.672;9.380;2024-01-06T08:01:56;4.80;;;1.90;;
78131;SDS011;67381;47.672;9.380;2024-01-06T08:04:24;5.95;;;2.50;;
78131;SDS011;67381;47.672;9.380;2024-01-06T08:06:51;4.35;;;3.05;;
78131;SDS011;67381;47.672;9.380;2024-01-06T08:09:19;5.38;;;2.05;;
78131;SDS011;67381;47.672;9.380;2024-01-06T08:11:46;3.42;;;2.17;;
78131;SDS011;67381;47.672;9.380;2024-01-06T08:14:15;3.70;;;2.25;;
78131;SDS011;67381;47.672;9.380;2024-01-06T08:16:44;5.53;;;2.53;;
78131;SDS011;67381;47.672;9.380;2024-01-06T08:19:11;9.57;;;3.78;;
78131;SDS011;67381;47.672;9.380;2024-01-06T08:21:38;7.25;;;2.58;;
78131;SDS011;67381;47.672;9.380;2024-01-06T08:24:05;4.63;;;2.38;;
78131;SDS011;67381;47.672;9.380;2024-01-06T08:26:32;3.33;;;2.00;;
78131;SDS011;67381;47.672;9.380;2024-01-06T08:29:00;4.13;;;2.08;;
78131;SDS011;67381;47.672;9.380;2024-01-06T08:31:27;5.85;;;3.50;;
78131;SDS011;67381;47.672;9.380;2024-01-06T08:33:54;6.68;;;2.78;;
78131;SDS011;67381;47.672;9.380;2024-01-06T08:36:22;4.25;;;2.40;;
78131;SDS011;67381;47.672;9.380;2024-01-06T08:38:49;5.75;;;2.78;;
78131;SDS011;67381;47.672;9.380;2024-01-06T08:41:16;7.30;;;2.83;;
78131;SDS011;67381;47.672;9.380;2024-01-06T08:43:43;5.03;;;2.90;;
78131;SDS011;67381;47.672;9.380;2024-01-06T08:46:10;5.53;;;2.63;;
78131;SDS011;67381;47.672;9.380;2024-01-06T08:48:37;3.85;;;2.53;;
78131;SDS011;67381;47.672;9.380;2024-01-06T08:51:04;3.65;;;2.65;;
78131;SDS011;67381;47.672;9.380;2024-01-06T08:53:32;5.65;;;2.88;;
78131;SDS011;67381;47.672;9.380;2024-01-06T08:55:59;4.55;;;3.22;;
78131;SDS011;67381;47.672;9.380;2024-01-06T08:58:27;3.38;;;2.30;;
78131;SDS011;67381;47.672;9.380;2024-01-06T09:00:54;4.45;;;3.28;;
78131;SDS011;67381;47.672;9.380;2024-01-06T09:03:21;4.65;;;2.72;;
78131;SDS011;67381;47.672;9.380;2024-01-06T09:05:53;3.30;;;1.98;;
78131;SDS011;67381;47.672;9.380;2024-01-06T09:08:21;3.90;;;1.73;;
78131;SDS011;67381;47.672;9.380;2024-01-06T09:10:48;6.38;;;1.60;;
78131;SDS011;67381;47.672;9.380;2024-01-06T09:13:18;3.10;;;1.42;;
78131;SDS011;67381;47.672;9.380;2024-01-06T09:15:45;6.43;;;2.00;;
78131;SDS011;67381;47.672;9.380;2024-01-06T09:18:12;3.08;;;1.00;;
78131;SDS011;67381;47.672;9.380;2024-01-06T09:20:40;2.30;;;1.48;;
78131;SDS011;67381;47.672;9.380;2024-01-06T09:23:07;2.80;;;2.05;;
78131;SDS011;67381;47.672;9.380;2024-01-06T09:25:35;2.83;;;1.75;;
78131;SDS011;67381;47.672;9.380;2024-01-06T09:28:02;3.33;;;2.17;;
78131;SDS011;67381;47.672;9.380;2024-01-06T09:30:29;4.95;;;1.73;;
78131;SDS011;67381;47.672;9.380;2024-01-06T09:32:57;4.38;;;2.05;;
78131;SDS011;67381;47.672;9.380;2024-01-06T09:35:24;3.40;;;2.17;;
78131;SDS011;67381;47.672;9.380;2024-01-06T09:37:52;3.50;;;2.60;;
78131;SDS011;67381;47.672;9.380;2024-01-06T09:40:22;3.67;;;2.35;;
78131;SDS011;67381;47.672;9.380;2024-01-06T09:42:50;4.40;;;2.85;;
78131;SDS011;67381;47.672;9.380;2024-01-06T09:45:18;3.47;;;2.55;;
78131;SDS011;67381;47.672;9.380;2024-01-06T09:47:46;3.08;;;2.30;;
78131;SDS011;67381;47.672;9.380;2024-01-06T09:50:17;2.90;;;2.05;;
78131;SDS011;67381;47.672;9.380;2024-01-06T09:52:46;3.72;;;2.53;;
78131;SDS011;67381;47.672;9.380;2024-01-06T09:55:24;5.45;;;2.15;;
78131;SDS011;67381;47.672;9.380;2024-01-06T09:57:54;3.45;;;2.25;;
78131;SDS011;67381;47.672;9.380;2024-01-06T10:00:21;3.63;;;2.53;;
78131;SDS011;67381;47.672;9.380;2024-01-06T10:02:49;3.97;;;2.90;;
78131;SDS011;67381;47.672;9.380;2024-01-06T10:05:17;6.63;;;2.40;;
78131;SDS011;67381;47.672;9.380;2024-01-06T10:07:45;3.80;;;2.55;;
78131;SDS011;67381;47.672;9.380;2024-01-06T10:10:13;3.50;;;2.47;;
78131;SDS011;67381;47.672;9.380;2024-01-06T10:12:41;3.25;;;2.25;;
78131;SDS011;67381;47.672;9.380;2024-01-06T10:15:10;5.28;;;3.03;;
78131;SDS011;67381;47.672;9.380;2024-01-06T10:17:37;6.57;;;3.33;;
78131;SDS011;67381;47.672;9.380;2024-01-06T10:20:06;5.15;;;2.30;;
78131;SDS011;67381;47.672;9.380;2024-01-06T10:22:37;5.82;;;3.33;;
78131;SDS011;67381;47.672;9.380;2024-01-06T10:25:05;4.72;;;3.03;;
78131;SDS011;67381;47.672;9.380;2024-01-06T10:27:33;3.78;;;2.70;;
78131;SDS011;67381;47.672;9.380;2024-01-06T10:30:01;6.00;;;3.28;;
78131;SDS011;67381;47.672;9.380;2024-01-06T10:32:31;7.32;;;3.92;;
78131;SDS011;67381;47.672;9.380;2024-01-06T10:34:59;4.95;;;3.10;;
78131;SDS011;67381;47.672;9.380;2024-01-06T10:37:28;4.40;;;3.08;;
78131;SDS011;67381;47.672;9.380;2024-01-06T10:42:34;4.53;;;2.63;;
78131;SDS011;67381;47.672;9.380;2024-01-06T10:45:02;3.83;;;2.47;;
78131;SDS011;67381;47.672;9.380;2024-01-06T10:47:30;3.67;;;2.70;;
78131;SDS011;67381;47.672;9.380;2024-01-06T10:49:59;3.47;;;2.33;;
78131;SDS011;67381;47.672;9.380;2024-01-06T10:52:27;5.60;;;2.78;;
78131;SDS011;67381;47.672;9.380;2024-01-06T10:54:55;4.60;;;2.50;;
78131;SDS011;67381;47.672;9.380;2024-01-06T10:57:22;4.00;;;2.65;;
78131;SDS011;67381;47.672;9.380;2024-01-06T10:59:51;4.80;;;2.30;;
78131;SDS011;67381;47.672;9.380;2024-01-06T11:02:18;5.07;;;2.95;;
78131;SDS011;67381;47.672;9.380;2024-01-06T11:04:46;6.22;;;3.50;;
78131;SDS011;67381;47.672;9.380;2024-01-06T11:07:17;5.20;;;2.95;;
78131;SDS011;67381;47.672;9.380;2024-01-06T11:09:50;7.03;;;3.67;;
78131;SDS011;67381;47.672;9.380;2024-01-06T11:12:18;4.28;;;2.92;;
78131;SDS011;67381;47.672;9.380;2024-01-06T11:14:45;5.65;;;3.05;;
78131;SDS011;67381;47.672;9.380;2024-01-06T11:17:12;5.82;;;2.63;;
78131;SDS011;67381;47.672;9.380;2024-01-06T11:22:24;3.72;;;2.40;;
78131;SDS011;67381;47.672;9.380;2024-01-06T11:24:51;4.88;;;2.50;;
78131;SDS011;67381;47.672;9.380;2024-01-06T11:27:20;3.47;;;2.35;;
78131;SDS011;67381;47.672;9.380;2024-01-06T11:29:52;4.45;;;2.92;;
78131;SDS011;67381;47.672;9.380;2024-01-06T11:34:51;4.90;;;3.55;;
78131;SDS011;67381;47.672;9.380;2024-01-06T11:37:23;4.90;;;2.83;;
78131;SDS011;67381;47.672;9.380;2024-01-06T11:39:50;2.90;;;1.63;;
78131;SDS011;67381;47.672;9.380;2024-01-06T11:42:18;5.35;;;2.55;;
78131;SDS011;67381;47.672;9.380;2024-01-06T11:44:49;4.82;;;2.67;;
78131;SDS011;67381;47.672;9.380;2024-01-06T11:47:17;4.28;;;2.67;;
78131;SDS011;67381;47.672;9.380;2024-01-06T11:49:45;6.13;;;3.00;;
78131;SDS011;67381;47.672;9.380;2024-01-06T11:52:13;4.47;;;2.97;;
78131;SDS011;67381;47.672;9.380;2024-01-06T11:54:40;7.35;;;3.00;;
78131;SDS011;67381;47.672;9.380;2024-01-06T11:57:08;4.65;;;3.45;;
78131;SDS011;67381;47.672;9.380;2024-01-06T11:59:36;4.68;;;2.63;;
78131;SDS011;67381;47.672;9.380;2024-01-06T12:02:03;5.03;;;2.70;;
78131;SDS011;67381;47.672;9.380;2024-01-06T12:04:30;4.90;;;2.55;;
78131;SDS011;67381;47.672;9.380;2024-01-06T12:07:05;5.88;;;3.13;;
78131;SDS011;67381;47.672;9.380;2024-01-06T12:09:32;5.85;;;3.90;;
78131;SDS011;67381;47.672;9.380;2024-01-06T12:12:03;8.23;;;4.65;;
78131;SDS011;67381;47.672;9.380;2024-01-06T12:14:32;6.22;;;2.40;;
78131;SDS011;67381;47.672;9.380;2024-01-06T12:16:59;3.45;;;2.30;;
78131;SDS011;67381;47.672;9.380;2024-01-06T12:19:35;5.05;;;3.10;;
78131;SDS011;67381;47.672;9.380;2024-01-06T12:22:04;3.58;;;2.70;;
78131;SDS011;67381;47.672;9.380;2024-01-06T12:24:31;4.22;;;2.67;;
78131;SDS011;67381;47.672;9.380;2024-01-06T12:26:58;4.32;;;1.85;;
78131;SDS011;67381;47.672;9.380;2024-01-06T12:29:28;3.63;;;2.42;;
78131;SDS011;67381;47.672;9.380;2024-01-06T12:31:56;3.85;;;2.80;;
78131;SDS011;67381;47.672;9.380;2024-01-06T12:34:23;5.00;;;2.05;;
78131;SDS011;67381;47.672;9.380;2024-01-06T12:36:52;4.93;;;3.58;;
78131;SDS011;67381;47.672;9.380;2024-01-06T12:39:19;5.60;;;3.08;;
78131;SDS011;67381;47.672;9.380;2024-01-06T12:41:46;4.10;;;3.22;;
78131;SDS011;67381;47.672;9.380;2024-01-06T12:44:13;7.43;;;3.30;;
78131;SDS011;67381;47.672;9.380;2024-01-06T12:46:40;4.95;;;2.58;;
78131;SDS011;67381;47.672;9.380;2024-01-06T12:49:08;6.18;;;2.83;;
78131;SDS011;67381;47.672;9.380;2024-01-06T12:51:35;5.10;;;3.67;;
78131;SDS011;67381;47.672;9.380;2024-01-06T12:54:02;5.13;;;2.97;;
78131;SDS011;67381;47.672;9.380;2024-01-06T12:56:30;6.45;;;3.45;;
78131;SDS011;67381;47.672;9.380;2024-01-06T12:58:57;5.68;;;3.42;;
78131;SDS011;67381;47.672;9.380;2024-01-06T13:01:24;3.97;;;2.70;;
78131;SDS011;67381;47.672;9.380;2024-01-06T13:03:51;4.03;;;2.38;;
78131;SDS011;67381;47.672;9.380;2024-01-06T13:06:20;6.20;;;3.90;;
78131;SDS011;67381;47.672;9.380;2024-01-06T13:08:48;5.70;;;2.63;;
78131;SDS011;67381;47.672;9.380;2024-01-06T13:11:15;6.53;;;3.05;;
78131;SDS011;67381;47.672;9.380;2024-01-06T13:13:43;5.07;;;2.97;;
78131;SDS011;67381;47.672;9.380;2024-01-06T13:16:10;4.03;;;2.80;;
78131;SDS011;67381;47.672;9.380;2024-01-06T13:18:37;3.47;;;2.60;;
78131;SDS011;67381;47.672;9.380;2024-01-06T13:21:04;6.10;;;2.92;;
78131;SDS011;67381;47.672;9.380;2024-01-06T13:23:31;6.22;;;4.18;;
78131;SDS011;67381;47.672;9.380;2024-01-06T13:25:58;4.30;;;3.55;;
78131;SDS011;67381;47.672;9.380;2024-01-06T13:28:25;7.32;;;4.30;;
78131;SDS011;67381;47.672;9.380;2024-01-06T13:30:52;5.28;;;3.63;;
78131;SDS011;67381;47.672;9.380;2024-01-06T13:33:20;5.07;;;2.85;;
78131;SDS011;67381;47.672;9.380;2024-01-06T13:35:47;4.45;;;2.95;;
78131;SDS011;67381;47.672;9.380;2024-01-06T13:38:14;4.22;;;2.90;;
78131;SDS011;67381;47.672;9.380;2024-01-06T13:40:43;6.60;;;3.40;;
78131;SDS011;67381;47.672;9.380;2024-01-06T13:43:10;5.97;;;2.90;;
78131;SDS011;67381;47.672;9.380;2024-01-06T13:45:42;3.72;;;2.30;;
78131;SDS011;67381;47.672;9.380;2024-01-06T13:48:10;3.20;;;1.98;;
78131;SDS011;67381;47.672;9.380;2024-01-06T13:50:37;3.65;;;2.40;;
78131;SDS011;67381;47.672;9.380;2024-01-06T13:53:05;3.60;;;2.22;;
78131;SDS011;67381;47.672;9.380;2024-01-06T13:55:33;4.43;;;2.47;;
78131;SDS011;67381;47.672;9.380;2024-01-06T13:58:00;3.67;;;2.45;;
78131;SDS011;67381;47.672;9.380;2024-01-06T14:00:28;4.30;;;2.67;;
78131;SDS011;67381;47.672;9.380;2024-01-06T14:02:55;5.45;;;2.78;;
78131;SDS011;67381;47.672;9.380;2024-01-06T14:05:23;6.30;;;3.55;;
78131;SDS011;67381;47.672;9.380;2024-01-06T14:07:50;6.20;;;2.78;;
78131;SDS011;67381;47.672;9.380;2024-01-06T14:10:17;4.88;;;2.38;;
78131;SDS011;67381;47.672;9.380;2024-01-06T14:12:44;3.65;;;2.78;;
78131;SDS011;67381;47.672;9.380;2024-01-06T14:15:12;5.80;;;3.00;;
78131;SDS011;67381;47.672;9.380;2024-01-06T14:17:39;4.45;;;2.97;;
78131;SDS011;67381;47.672;9.380;2024-01-06T14:20:07;7.32;;;3.28;;
78131;SDS011;67381;47.672;9.380;2024-01-06T14:22:36;5.88;;;3.45;;
78131;SDS011;67381;47.672;9.380;2024-01-06T14:25:04;5.68;;;3.33;;
78131;SDS011;67381;47.672;9.380;2024-01-06T14:27:32;5.15;;;3.13;;
78131;SDS011;67381;47.672;9.380;2024-01-06T14:29:59;12.55;;;3.97;;
78131;SDS011;67381;47.672;9.380;2024-01-06T14:32:26;4.18;;;2.70;;
78131;SDS011;67381;47.672;9.380;2024-01-06T14:34:53;6.53;;;3.92;;
78131;SDS011;67381;47.672;9.380;2024-01-06T14:37:20;5.05;;;3.60;;
78131;SDS011;67381;47.672;9.380;2024-01-06T14:39:48;5.63;;;3.50;;
78131;SDS011;67381;47.672;9.380;2024-01-06T14:42:15;5.18;;;3.47;;
78131;SDS011;67381;47.672;9.380;2024-01-06T14:44:43;6.35;;;3.92;;
78131;SDS011;67381;47.672;9.380;2024-01-06T14:47:10;5.88;;;3.60;;
78131;SDS011;67381;47.672;9.380;2024-01-06T14:49:39;5.60;;;3.92;;
78131;SDS011;67381;47.672;9.380;2024-01-06T14:52:06;5.53;;;3.80;;
78131;SDS011;67381;47.672;9.380;2024-01-06T14:54:34;5.22;;;3.17;;